sensor_id;sensor_type;location;lat;lon;timestamp;pressure;altitude;pressure_sealevel;temperature;humidity
62458;BME280;48509;52.122;5.250;2022-12-11T00:01:31;101130.0;;;3.53;93.3
62458;BME280;48509;52.122;5.250;2022-12-11T00:03:08;101133.0;;;3.29;93.84
62458;BME280;48509;52.122;5.250;2022-12-11T00:04:44;101128.0;;;3.38;94.2
62458;BME280;48509;52.122;5.250;2022-12-11T00:07:58;101127.0;;;3.4;94.28
62458;BME280;48509;52.122;5.250;2022-12-11T00:09:35;101124.0;;;3.39;94.12
62458;BME280;48509;52.122;5.250;2022-12-11T00:11:13;101126.0;;;3.37;94.43
62458;BME280;48509;52.122;5.250;2022-12-11T00:14:26;101130.0;;;3.44;94.41
62458;BME280;48509;52.122;5.250;2022-12-11T00:16:02;101128.0;;;3.34;94.58
62458;BME280;48509;52.122;5.250;2022-12-11T00:17:39;101130.0;;;3.54;94.08
62458;BME280;48509;52.122;5.250;2022-12-11T00:19:15;101130.0;;;3.46;93.9
62458;BME280;48509;52.122;5.250;2022-12-11T00:22:29;101132.0;;;3.36;94.36
62458;BME280;48509;52.122;5.250;2022-12-11T00:24:06;101134.0;;;3.34;94.46
62458;BME280;48509;52.122;5.250;2022-12-11T00:25:44;101133.0;;;3.39;94.56
62458;BME280;48509;52.122;5.250;2022-12-11T00:28:59;101141.0;;;3.42;94.63
62458;BME280;48509;52.122;5.250;2022-12-11T00:30:38;101136.0;;;3.61;94.05
62458;BME280;48509;52.122;5.250;2022-12-11T00:32:15;101137.0;;;3.62;93.7
62458;BME280;48509;52.122;5.250;2022-12-11T00:33:51;101137.0;;;3.53;93.5
62458;BME280;48509;52.122;5.250;2022-12-11T00:37:03;101134.0;;;3.56;93.75
62458;BME280;48509;52.122;5.250;2022-12-11T00:38:40;101133.0;;;3.69;93.04
62458;BME280;48509;52.122;5.250;2022-12-11T00:40:16;101130.0;;;3.74;92.75
62458;BME280;48509;52.122;5.250;2022-12-11T00:43:29;101130.0;;;3.59;93.24
62458;BME280;48509;52.122;5.250;2022-12-11T00:45:06;101124.0;;;3.65;93.43
62458;BME280;48509;52.122;5.250;2022-12-11T00:46:42;101123.0;;;3.77;93.01
62458;BME280;48509;52.122;5.250;2022-12-11T00:49:55;101128.0;;;3.65;92.85
62458;BME280;48509;52.122;5.250;2022-12-11T00:51:31;101124.0;;;3.69;93.2
62458;BME280;48509;52.122;5.250;2022-12-11T00:53:07;101125.0;;;3.58;93.82
62458;BME280;48509;52.122;5.250;2022-12-11T00:56:21;101122.0;;;3.32;94.9
62458;BME280;48509;52.122;5.250;2022-12-11T00:57:58;101121.0;;;3.39;94.86
62458;BME280;48509;52.122;5.250;2022-12-11T00:59:35;101115.0;;;3.5;94.55
62458;BME280;48509;52.122;5.250;2022-12-11T01:01:14;101112.0;;;3.6;94.37
62458;BME280;48509;52.122;5.250;2022-12-11T01:04:27;101110.0;;;3.62;94.22
62458;BME280;48509;52.122;5.250;2022-12-11T01:06:05;101108.0;;;3.67;94.0
62458;BME280;48509;52.122;5.250;2022-12-11T01:07:41;101110.0;;;3.92;93.42
62458;BME280;48509;52.122;5.250;2022-12-11T01:12:11;101106.0;;;3.77;93.58
62458;BME280;48509;52.122;5.250;2022-12-11T01:13:47;101099.0;;;3.63;93.98
62458;BME280;48509;52.122;5.250;2022-12-11T01:17:03;101101.0;;;3.78;93.55
62458;BME280;48509;52.122;5.250;2022-12-11T01:18:39;101099.0;;;3.83;93.32
62458;BME280;48509;52.122;5.250;2022-12-11T01:20:17;101100.0;;;3.73;93.32
62458;BME280;48509;52.122;5.250;2022-12-11T01:23:31;101105.0;;;3.74;93.7
62458;BME280;48509;52.122;5.250;2022-12-11T01:25:09;101100.0;;;3.8;93.6
62458;BME280;48509;52.122;5.250;2022-12-11T01:26:45;101105.0;;;3.75;94.07
62458;BME280;48509;52.122;5.250;2022-12-11T01:28:22;101098.0;;;3.79;94.01
62458;BME280;48509;52.122;5.250;2022-12-11T01:31:34;101101.0;;;3.74;93.96
62458;BME280;48509;52.122;5.250;2022-12-11T01:33:10;101105.0;;;3.89;93.4
62458;BME280;48509;52.122;5.250;2022-12-11T01:34:48;101109.0;;;3.87;93.33
62458;BME280;48509;52.122;5.250;2022-12-11T01:38:02;101105.0;;;3.85;93.5
62458;BME280;48509;52.122;5.250;2022-12-11T01:39:38;101105.0;;;3.84;93.53
62458;BME280;48509;52.122;5.250;2022-12-11T01:41:15;101107.0;;;3.83;93.4
62458;BME280;48509;52.122;5.250;2022-12-11T01:42:52;101111.0;;;3.85;93.24
62458;BME280;48509;52.122;5.250;2022-12-11T01:46:59;101115.0;;;3.84;93.43
62458;BME280;48509;52.122;5.250;2022-12-11T01:48:36;101112.0;;;3.89;92.98
62458;BME280;48509;52.122;5.250;2022-12-11T01:50:13;101113.0;;;3.86;93.72
62458;BME280;48509;52.122;5.250;2022-12-11T01:51:54;101109.0;;;4.03;92.73
62458;BME280;48509;52.122;5.250;2022-12-11T01:53:39;101110.0;;;4.0;92.91
62458;BME280;48509;52.122;5.250;2022-12-11T01:57:03;101111.0;;;3.84;93.52
62458;BME280;48509;52.122;5.250;2022-12-11T01:58:43;101107.0;;;3.81;93.37
62458;BME280;48509;52.122;5.250;2022-12-11T02:00:22;101102.0;;;4.0;93.12
62458;BME280;48509;52.122;5.250;2022-12-11T02:02:02;101098.0;;;3.96;93.17
62458;BME280;48509;52.122;5.250;2022-12-11T02:05:18;101098.0;;;3.93;93.17
62458;BME280;48509;52.122;5.250;2022-12-11T02:06:54;101096.0;;;3.94;93.01
62458;BME280;48509;52.122;5.250;2022-12-11T02:08:31;101099.0;;;3.95;93.09
62458;BME280;48509;52.122;5.250;2022-12-11T02:10:09;101099.0;;;4.12;92.31
62458;BME280;48509;52.122;5.250;2022-12-11T02:13:41;101096.0;;;4.16;92.01
62458;BME280;48509;52.122;5.250;2022-12-11T02:15:30;101098.0;;;4.26;91.87
62458;BME280;48509;52.122;5.250;2022-12-11T02:17:12;101090.0;;;3.95;92.43
62458;BME280;48509;52.122;5.250;2022-12-11T02:18:55;101090.0;;;3.88;92.88
62458;BME280;48509;52.122;5.250;2022-12-11T02:20:38;101092.0;;;4.01;92.97
62458;BME280;48509;52.122;5.250;2022-12-11T02:24:27;101090.0;;;3.93;93.15
62458;BME280;48509;52.122;5.250;2022-12-11T02:26:35;101089.0;;;3.88;93.19
62458;BME280;48509;52.122;5.250;2022-12-11T02:28:23;101089.0;;;3.94;92.74
62458;BME280;48509;52.122;5.250;2022-12-11T02:30:06;101084.0;;;3.91;93.04
62458;BME280;48509;52.122;5.250;2022-12-11T02:31:45;101076.0;;;3.86;92.83
62458;BME280;48509;52.122;5.250;2022-12-11T02:33:32;101072.0;;;3.91;92.96
62458;BME280;48509;52.122;5.250;2022-12-11T02:35:14;101071.0;;;3.9;92.87
62458;BME280;48509;52.122;5.250;2022-12-11T02:38:40;101071.0;;;3.81;93.35
62458;BME280;48509;52.122;5.250;2022-12-11T02:40:24;101073.0;;;4.01;92.59
62458;BME280;48509;52.122;5.250;2022-12-11T02:42:03;101068.0;;;4.12;92.1
62458;BME280;48509;52.122;5.250;2022-12-11T02:43:41;101065.0;;;3.93;92.54
62458;BME280;48509;52.122;5.250;2022-12-11T02:46:58;101064.0;;;4.1;92.09
62458;BME280;48509;52.122;5.250;2022-12-11T02:48:35;101065.0;;;3.88;92.79
62458;BME280;48509;52.122;5.250;2022-12-11T02:50:17;101069.0;;;4.09;91.91
62458;BME280;48509;52.122;5.250;2022-12-11T02:51:57;101069.0;;;4.08;92.24
62458;BME280;48509;52.122;5.250;2022-12-11T02:55:18;101069.0;;;4.28;91.21
62458;BME280;48509;52.122;5.250;2022-12-11T02:57:00;101071.0;;;4.16;91.3
62458;BME280;48509;52.122;5.250;2022-12-11T02:58:44;101064.0;;;3.97;92.16
62458;BME280;48509;52.122;5.250;2022-12-11T03:00:21;101070.0;;;4.21;91.38
62458;BME280;48509;52.122;5.250;2022-12-11T03:03:36;101065.0;;;3.96;92.16
62458;BME280;48509;52.122;5.250;2022-12-11T03:05:13;101066.0;;;3.89;92.53
62458;BME280;48509;52.122;5.250;2022-12-11T03:06:55;101068.0;;;3.89;92.97
62458;BME280;48509;52.122;5.250;2022-12-11T03:10:16;101063.0;;;3.88;92.26
62458;BME280;48509;52.122;5.250;2022-12-11T03:11:54;101066.0;;;3.95;92.07
62458;BME280;48509;52.122;5.250;2022-12-11T03:13:30;101064.0;;;3.82;92.59
62458;BME280;48509;52.122;5.250;2022-12-11T03:15:10;101068.0;;;3.79;93.08
62458;BME280;48509;52.122;5.250;2022-12-11T03:18:39;101069.0;;;3.96;91.85
62458;BME280;48509;52.122;5.250;2022-12-11T03:20:25;101070.0;;;3.99;92.12
62458;BME280;48509;52.122;5.250;2022-12-11T03:22:11;101071.0;;;4.04;91.47
62458;BME280;48509;52.122;5.250;2022-12-11T03:23:56;101068.0;;;4.16;91.23
62458;BME280;48509;52.122;5.250;2022-12-11T03:25:43;101065.0;;;4.1;91.28
62458;BME280;48509;52.122;5.250;2022-12-11T03:29:14;101068.0;;;4.16;90.72
62458;BME280;48509;52.122;5.250;2022-12-11T03:30:54;101068.0;;;4.09;91.35
62458;BME280;48509;52.122;5.250;2022-12-11T03:32:37;101071.0;;;3.96;92.17
62458;BME280;48509;52.122;5.250;2022-12-11T03:34:18;101070.0;;;3.9;92.14
62458;BME280;48509;52.122;5.250;2022-12-11T03:36:00;101062.0;;;4.01;92.11
62458;BME280;48509;52.122;5.250;2022-12-11T03:39:23;101072.0;;;3.87;91.84
62458;BME280;48509;52.122;5.250;2022-12-11T03:41:04;101067.0;;;3.81;92.49
62458;BME280;48509;52.122;5.250;2022-12-11T03:42:45;101071.0;;;3.82;92.16
62458;BME280;48509;52.122;5.250;2022-12-11T03:44:26;101070.0;;;3.97;92.17
62458;BME280;48509;52.122;5.250;2022-12-11T03:47:45;101070.0;;;4.03;91.55
62458;BME280;48509;52.122;5.250;2022-12-11T03:49:25;101067.0;;;4.01;91.64
62458;BME280;48509;52.122;5.250;2022-12-11T03:51:06;101069.0;;;4.13;91.23
62458;BME280;48509;52.122;5.250;2022-12-11T03:52:44;101065.0;;;4.0;91.44
62458;BME280;48509;52.122;5.250;2022-12-11T03:56:02;101064.0;;;3.75;92.93
62458;BME280;48509;52.122;5.250;2022-12-11T03:57:39;101067.0;;;3.75;93.24
62458;BME280;48509;52.122;5.250;2022-12-11T03:59:16;101067.0;;;3.93;92.53
62458;BME280;48509;52.122;5.250;2022-12-11T04:02:28;101068.0;;;3.97;92.33
62458;BME280;48509;52.122;5.250;2022-12-11T04:04:04;101067.0;;;3.83;92.92
62458;BME280;48509;52.122;5.250;2022-12-11T04:05:42;101069.0;;;3.89;92.62
62458;BME280;48509;52.122;5.250;2022-12-11T04:07:20;101061.0;;;3.96;92.2
62458;BME280;48509;52.122;5.250;2022-12-11T04:10:32;101061.0;;;3.72;93.05
62458;BME280;48509;52.122;5.250;2022-12-11T04:12:08;101063.0;;;3.86;93.1
62458;BME280;48509;52.122;5.250;2022-12-11T04:13:44;101062.0;;;3.78;93.47
62458;BME280;48509;52.122;5.250;2022-12-11T04:16:59;101057.0;;;3.71;93.94
62458;BME280;48509;52.122;5.250;2022-12-11T04:24:28;101059.0;;;4.14;91.59
62458;BME280;48509;52.122;5.250;2022-12-11T04:26:06;101055.0;;;4.14;91.41
62458;BME280;48509;52.122;5.250;2022-12-11T04:29:28;101048.0;;;4.08;91.43
62458;BME280;48509;52.122;5.250;2022-12-11T04:31:05;101048.0;;;3.85;92.12
62458;BME280;48509;52.122;5.250;2022-12-11T04:32:42;101048.0;;;3.88;92.37
62458;BME280;48509;52.122;5.250;2022-12-11T04:35:56;101041.0;;;3.92;91.94
62458;BME280;48509;52.122;5.250;2022-12-11T04:37:33;101044.0;;;4.22;91.23
62458;BME280;48509;52.122;5.250;2022-12-11T04:39:10;101041.0;;;4.09;91.08
62458;BME280;48509;52.122;5.250;2022-12-11T04:42:22;101042.0;;;4.03;91.1
62458;BME280;48509;52.122;5.250;2022-12-11T04:43:58;101039.0;;;3.97;91.41
62458;BME280;48509;52.122;5.250;2022-12-11T04:45:34;101035.0;;;3.96;91.44
62458;BME280;48509;52.122;5.250;2022-12-11T04:50:25;101030.0;;;3.8;92.66
62458;BME280;48509;52.122;5.250;2022-12-11T04:52:01;101028.0;;;3.78;92.49
62458;BME280;48509;52.122;5.250;2022-12-11T04:53:38;101034.0;;;3.67;93.19
62458;BME280;48509;52.122;5.250;2022-12-11T04:56:50;101041.0;;;3.85;92.6
62458;BME280;48509;52.122;5.250;2022-12-11T04:58:26;101040.0;;;3.91;92.33
62458;BME280;48509;52.122;5.250;2022-12-11T05:00:05;101038.0;;;3.84;91.18
62458;BME280;48509;52.122;5.250;2022-12-11T05:01:44;101042.0;;;3.8;91.67
62458;BME280;48509;52.122;5.250;2022-12-11T05:04:59;101047.0;;;3.9;91.46
62458;BME280;48509;52.122;5.250;2022-12-11T05:06:35;101042.0;;;3.79;91.84
62458;BME280;48509;52.122;5.250;2022-12-11T05:08:11;101047.0;;;3.69;92.52
62458;BME280;48509;52.122;5.250;2022-12-11T05:11:23;101050.0;;;3.62;92.22
62458;BME280;48509;52.122;5.250;2022-12-11T05:13:00;101046.0;;;3.72;92.58
62458;BME280;48509;52.122;5.250;2022-12-11T05:17:53;101045.0;;;3.68;92.38
62458;BME280;48509;52.122;5.250;2022-12-11T05:19:28;101047.0;;;3.55;93.43
62458;BME280;48509;52.122;5.250;2022-12-11T05:21:07;101047.0;;;3.89;92.06
62458;BME280;48509;52.122;5.250;2022-12-11T05:22:45;101044.0;;;3.81;91.79
62458;BME280;48509;52.122;5.250;2022-12-11T05:26:01;101043.0;;;3.77;91.87
62458;BME280;48509;52.122;5.250;2022-12-11T05:27:37;101045.0;;;3.68;92.25
62458;BME280;48509;52.122;5.250;2022-12-11T05:29:13;101036.0;;;3.71;92.55
62458;BME280;48509;52.122;5.250;2022-12-11T05:32:31;101035.0;;;3.75;91.91
62458;BME280;48509;52.122;5.250;2022-12-11T05:34:07;101035.0;;;3.73;92.03
62458;BME280;48509;52.122;5.250;2022-12-11T05:35:46;101035.0;;;3.67;92.42
62458;BME280;48509;52.122;5.250;2022-12-11T05:37:22;101033.0;;;3.69;91.74
62458;BME280;48509;52.122;5.250;2022-12-11T05:40:37;101037.0;;;3.64;91.95
62458;BME280;48509;52.122;5.250;2022-12-11T05:42:13;101038.0;;;3.71;91.35
62458;BME280;48509;52.122;5.250;2022-12-11T05:43:50;101036.0;;;3.62;91.63
62458;BME280;48509;52.122;5.250;2022-12-11T05:47:03;101039.0;;;3.6;91.43
62458;BME280;48509;52.122;5.250;2022-12-11T05:48:40;101039.0;;;3.57;91.58
62458;BME280;48509;52.122;5.250;2022-12-11T05:50:17;101035.0;;;3.53;92.23
62458;BME280;48509;52.122;5.250;2022-12-11T05:51:53;101036.0;;;3.67;91.12
62458;BME280;48509;52.122;5.250;2022-12-11T05:55:07;101031.0;;;3.68;91.82
62458;BME280;48509;52.122;5.250;2022-12-11T05:56:45;101031.0;;;3.72;91.77
62458;BME280;48509;52.122;5.250;2022-12-11T05:58:22;101025.0;;;3.81;91.37
62458;BME280;48509;52.122;5.250;2022-12-11T06:01:36;101027.0;;;3.68;91.29
62458;BME280;48509;52.122;5.250;2022-12-11T06:03:14;101024.0;;;3.8;90.55
62458;BME280;48509;52.122;5.250;2022-12-11T06:04:50;101022.0;;;3.58;92.03
62458;BME280;48509;52.122;5.250;2022-12-11T06:08:04;101028.0;;;3.73;90.88
62458;BME280;48509;52.122;5.250;2022-12-11T06:09:41;101028.0;;;3.79;90.8
62458;BME280;48509;52.122;5.250;2022-12-11T06:11:18;101023.0;;;3.73;91.43
62458;BME280;48509;52.122;5.250;2022-12-11T06:12:54;101030.0;;;3.68;91.41
62458;BME280;48509;52.122;5.250;2022-12-11T06:16:08;101030.0;;;3.65;91.66
62458;BME280;48509;52.122;5.250;2022-12-11T06:17:45;101031.0;;;3.83;91.19
62458;BME280;48509;52.122;5.250;2022-12-11T06:19:21;101030.0;;;3.61;91.83
62458;BME280;48509;52.122;5.250;2022-12-11T06:22:34;101025.0;;;3.45;92.51
62458;BME280;48509;52.122;5.250;2022-12-11T06:24:11;101025.0;;;3.4;93.01
62458;BME280;48509;52.122;5.250;2022-12-11T06:25:47;101030.0;;;3.48;93.13
62458;BME280;48509;52.122;5.250;2022-12-11T06:27:23;101024.0;;;3.54;92.49
62458;BME280;48509;52.122;5.250;2022-12-11T06:30:37;101025.0;;;3.57;92.44
62458;BME280;48509;52.122;5.250;2022-12-11T06:32:14;101026.0;;;3.63;92.23
62458;BME280;48509;52.122;5.250;2022-12-11T06:33:50;101033.0;;;3.67;91.79
62458;BME280;48509;52.122;5.250;2022-12-11T06:37:02;101031.0;;;3.62;91.69
62458;BME280;48509;52.122;5.250;2022-12-11T06:38:39;101030.0;;;3.73;91.73
62458;BME280;48509;52.122;5.250;2022-12-11T06:40:16;101033.0;;;3.66;91.45
62458;BME280;48509;52.122;5.250;2022-12-11T06:43:29;101040.0;;;3.66;91.46
62458;BME280;48509;52.122;5.250;2022-12-11T06:45:07;101039.0;;;3.61;91.14
62458;BME280;48509;52.122;5.250;2022-12-11T06:46:44;101040.0;;;3.68;91.22
62458;BME280;48509;52.122;5.250;2022-12-11T06:48:20;101040.0;;;3.83;90.95
62458;BME280;48509;52.122;5.250;2022-12-11T06:51:33;101041.0;;;3.72;90.82
62458;BME280;48509;52.122;5.250;2022-12-11T06:53:10;101042.0;;;3.81;90.65
62458;BME280;48509;52.122;5.250;2022-12-11T06:54:48;101040.0;;;3.65;90.85
62458;BME280;48509;52.122;5.250;2022-12-11T06:58:00;101044.0;;;3.86;90.11
62458;BME280;48509;52.122;5.250;2022-12-11T06:59:37;101043.0;;;3.69;90.68
62458;BME280;48509;52.122;5.250;2022-12-11T07:02:52;101042.0;;;3.75;91.25
62458;BME280;48509;52.122;5.250;2022-12-11T07:04:29;101047.0;;;3.84;89.99
62458;BME280;48509;52.122;5.250;2022-12-11T07:06:06;101044.0;;;3.7;90.08
62458;BME280;48509;52.122;5.250;2022-12-11T07:07:43;101045.0;;;3.78;89.89
62458;BME280;48509;52.122;5.250;2022-12-11T07:09:19;101049.0;;;3.66;90.45
62458;BME280;48509;52.122;5.250;2022-12-11T07:12:38;101048.0;;;3.86;90.05
62458;BME280;48509;52.122;5.250;2022-12-11T07:14:14;101052.0;;;3.68;89.85
62458;BME280;48509;52.122;5.250;2022-12-11T07:15:51;101047.0;;;3.85;90.05
62458;BME280;48509;52.122;5.250;2022-12-11T07:19:04;101051.0;;;4.0;89.21
62458;BME280;48509;52.122;5.250;2022-12-11T07:20:40;101053.0;;;3.64;90.88
62458;BME280;48509;52.122;5.250;2022-12-11T07:22:16;101051.0;;;3.78;90.34
62458;BME280;48509;52.122;5.250;2022-12-11T07:23:52;101051.0;;;3.7;90.25
62458;BME280;48509;52.122;5.250;2022-12-11T07:27:05;101048.0;;;3.95;89.43
62458;BME280;48509;52.122;5.250;2022-12-11T07:28:42;101055.0;;;3.72;89.89
62458;BME280;48509;52.122;5.250;2022-12-11T07:30:18;101055.0;;;3.58;89.81
62458;BME280;48509;52.122;5.250;2022-12-11T07:33:31;101057.0;;;3.57;90.99
62458;BME280;48509;52.122;5.250;2022-12-11T07:35:08;101060.0;;;3.66;90.56
62458;BME280;48509;52.122;5.250;2022-12-11T07:36:45;101058.0;;;3.64;90.77
62458;BME280;48509;52.122;5.250;2022-12-11T07:39:57;101057.0;;;3.75;89.93
62458;BME280;48509;52.122;5.250;2022-12-11T07:41:34;101061.0;;;3.55;89.06
62458;BME280;48509;52.122;5.250;2022-12-11T07:43:10;101056.0;;;3.63;90.07
62458;BME280;48509;52.122;5.250;2022-12-11T07:46:26;101056.0;;;3.58;90.84
62458;BME280;48509;52.122;5.250;2022-12-11T07:48:03;101055.0;;;3.73;89.76
62458;BME280;48509;52.122;5.250;2022-12-11T07:49:40;101057.0;;;3.71;90.16
62458;BME280;48509;52.122;5.250;2022-12-11T07:51:18;101057.0;;;3.77;89.71
62458;BME280;48509;52.122;5.250;2022-12-11T07:54:31;101061.0;;;3.57;90.68
62458;BME280;48509;52.122;5.250;2022-12-11T07:56:08;101067.0;;;3.45;91.27
62458;BME280;48509;52.122;5.250;2022-12-11T07:57:44;101066.0;;;3.75;90.54
62458;BME280;48509;52.122;5.250;2022-12-11T08:00:57;101066.0;;;3.62;90.74
62458;BME280;48509;52.122;5.250;2022-12-11T08:02:33;101065.0;;;3.59;90.33
62458;BME280;48509;52.122;5.250;2022-12-11T08:04:11;101068.0;;;3.62;90.53
62458;BME280;48509;52.122;5.250;2022-12-11T08:05:47;101066.0;;;3.59;90.92
62458;BME280;48509;52.122;5.250;2022-12-11T08:09:02;101073.0;;;3.9;89.7
62458;BME280;48509;52.122;5.250;2022-12-11T08:10:39;101073.0;;;3.72;90.02
62458;BME280;48509;52.122;5.250;2022-12-11T08:12:16;101080.0;;;3.6;90.26
62458;BME280;48509;52.122;5.250;2022-12-11T08:15:29;101080.0;;;3.68;89.97
62458;BME280;48509;52.122;5.250;2022-12-11T08:17:05;101080.0;;;3.51;90.14
62458;BME280;48509;52.122;5.250;2022-12-11T08:18:43;101078.0;;;3.41;90.22
62458;BME280;48509;52.122;5.250;2022-12-11T08:21:56;101080.0;;;3.55;89.48
62458;BME280;48509;52.122;5.250;2022-12-11T08:23:32;101080.0;;;3.31;88.98
62458;BME280;48509;52.122;5.250;2022-12-11T08:25:09;101078.0;;;3.23;90.17
62458;BME280;48509;52.122;5.250;2022-12-11T08:26:46;101073.0;;;3.27;90.3
62458;BME280;48509;52.122;5.250;2022-12-11T08:30:00;101071.0;;;3.59;89.81
62458;BME280;48509;52.122;5.250;2022-12-11T08:31:36;101067.0;;;3.51;90.09
62458;BME280;48509;52.122;5.250;2022-12-11T08:33:14;101076.0;;;3.61;90.12
62458;BME280;48509;52.122;5.250;2022-12-11T08:36:26;101080.0;;;3.37;90.52
62458;BME280;48509;52.122;5.250;2022-12-11T08:39:40;101080.0;;;3.57;89.25
62458;BME280;48509;52.122;5.250;2022-12-11T08:42:55;101074.0;;;3.53;89.77
62458;BME280;48509;52.122;5.250;2022-12-11T08:44:31;101073.0;;;3.43;89.67
62458;BME280;48509;52.122;5.250;2022-12-11T08:46:08;101072.0;;;3.52;89.69
62458;BME280;48509;52.122;5.250;2022-12-11T08:47:44;101077.0;;;3.5;89.86
62458;BME280;48509;52.122;5.250;2022-12-11T08:50:58;101070.0;;;3.58;89.35
62458;BME280;48509;52.122;5.250;2022-12-11T08:52:35;101064.0;;;3.77;88.37
62458;BME280;48509;52.122;5.250;2022-12-11T08:54:11;101063.0;;;3.59;88.82
62458;BME280;48509;52.122;5.250;2022-12-11T08:57:24;101063.0;;;3.32;90.54
62458;BME280;48509;52.122;5.250;2022-12-11T08:59:00;101059.0;;;3.64;89.34
62458;BME280;48509;52.122;5.250;2022-12-11T09:00:37;101056.0;;;3.54;89.81
62458;BME280;48509;52.122;5.250;2022-12-11T09:02:13;101060.0;;;3.76;88.46
62458;BME280;48509;52.122;5.250;2022-12-11T09:05:28;101055.0;;;3.77;88.22
62458;BME280;48509;52.122;5.250;2022-12-11T09:07:04;101049.0;;;3.94;87.66
62458;BME280;48509;52.122;5.250;2022-12-11T09:08:42;101048.0;;;3.66;88.53
62458;BME280;48509;52.122;5.250;2022-12-11T09:11:56;101046.0;;;3.53;89.48
62458;BME280;48509;52.122;5.250;2022-12-11T09:13:32;101046.0;;;3.62;89.23
62458;BME280;48509;52.122;5.250;2022-12-11T09:15:10;101041.0;;;3.45;89.69
62458;BME280;48509;52.122;5.250;2022-12-11T09:18:22;101042.0;;;3.68;89.45
62458;BME280;48509;52.122;5.250;2022-12-11T09:19:59;101043.0;;;3.46;90.69
62458;BME280;48509;52.122;5.250;2022-12-11T09:21:35;101046.0;;;3.44;91.06
62458;BME280;48509;52.122;5.250;2022-12-11T09:23:11;101046.0;;;3.49;91.23
62458;BME280;48509;52.122;5.250;2022-12-11T09:26:24;101047.0;;;3.43;92.04
62458;BME280;48509;52.122;5.250;2022-12-11T09:28:02;101046.0;;;3.61;91.7
62458;BME280;48509;52.122;5.250;2022-12-11T09:29:38;101044.0;;;3.79;90.7
62458;BME280;48509;52.122;5.250;2022-12-11T09:32:54;101041.0;;;3.74;91.18
62458;BME280;48509;52.122;5.250;2022-12-11T09:34:30;101044.0;;;3.81;90.73
62458;BME280;48509;52.122;5.250;2022-12-11T09:36:07;101046.0;;;3.59;90.48
62458;BME280;48509;52.122;5.250;2022-12-11T09:39:20;101044.0;;;3.8;90.49
62458;BME280;48509;52.122;5.250;2022-12-11T09:40:56;101044.0;;;3.82;89.14
62458;BME280;48509;52.122;5.250;2022-12-11T09:42:45;101044.0;;;3.68;89.31
62458;BME280;48509;52.122;5.250;2022-12-11T09:44:31;101045.0;;;3.61;89.1
62458;BME280;48509;52.122;5.250;2022-12-11T09:46:16;101040.0;;;3.58;89.9
62458;BME280;48509;52.122;5.250;2022-12-11T09:49:36;101041.0;;;3.61;89.73
62458;BME280;48509;52.122;5.250;2022-12-11T09:51:17;101042.0;;;3.73;90.09
62458;BME280;48509;52.122;5.250;2022-12-11T09:53:11;101041.0;;;3.75;90.01
62458;BME280;48509;52.122;5.250;2022-12-11T09:54:53;101041.0;;;3.95;88.28
62458;BME280;48509;52.122;5.250;2022-12-11T09:58:22;101032.0;;;3.93;89.56
62458;BME280;48509;52.122;5.250;2022-12-11T10:00:11;101033.0;;;3.94;89.9
62458;BME280;48509;52.122;5.250;2022-12-11T10:01:54;101025.0;;;4.03;88.4
62458;BME280;48509;52.122;5.250;2022-12-11T10:03:46;101031.0;;;4.05;88.42
62458;BME280;48509;52.122;5.250;2022-12-11T10:05:36;101028.0;;;4.05;88.38
62458;BME280;48509;52.122;5.250;2022-12-11T10:07:21;101033.0;;;3.97;89.07
62458;BME280;48509;52.122;5.250;2022-12-11T10:11:01;101037.0;;;3.99;89.25
62458;BME280;48509;52.122;5.250;2022-12-11T10:12:46;101040.0;;;4.0;89.39
62458;BME280;48509;52.122;5.250;2022-12-11T10:14:36;101040.0;;;3.98;89.79
62458;BME280;48509;52.122;5.250;2022-12-11T10:16:30;101043.0;;;4.04;89.29
62458;BME280;48509;52.122;5.250;2022-12-11T10:18:10;101043.0;;;3.88;90.7
62458;BME280;48509;52.122;5.250;2022-12-11T10:19:50;101040.0;;;4.14;89.74
62458;BME280;48509;52.122;5.250;2022-12-11T10:23:18;101035.0;;;4.03;88.79
62458;BME280;48509;52.122;5.250;2022-12-11T10:24:57;101031.0;;;4.07;89.67
62458;BME280;48509;52.122;5.250;2022-12-11T10:26:37;101032.0;;;3.95;89.89
62458;BME280;48509;52.122;5.250;2022-12-11T10:28:16;101028.0;;;4.14;88.99
62458;BME280;48509;52.122;5.250;2022-12-11T10:31:44;101027.0;;;4.07;89.49
62458;BME280;48509;52.122;5.250;2022-12-11T10:33:29;101025.0;;;4.38;86.88
62458;BME280;48509;52.122;5.250;2022-12-11T10:35:17;101028.0;;;4.24;88.33
62458;BME280;48509;52.122;5.250;2022-12-11T10:36:55;101028.0;;;4.2;86.27
62458;BME280;48509;52.122;5.250;2022-12-11T10:38:37;101023.0;;;4.07;87.68
62458;BME280;48509;52.122;5.250;2022-12-11T10:41:56;101030.0;;;4.16;89.37
62458;BME280;48509;52.122;5.250;2022-12-11T10:43:34;101020.0;;;4.16;88.27
62458;BME280;48509;52.122;5.250;2022-12-11T10:45:14;101020.0;;;4.17;88.6
62458;BME280;48509;52.122;5.250;2022-12-11T10:47:01;101022.0;;;4.24;88.87
62458;BME280;48509;52.122;5.250;2022-12-11T10:50:23;101021.0;;;4.3;87.67
62458;BME280;48509;52.122;5.250;2022-12-11T10:52:01;101020.0;;;4.1;88.95
62458;BME280;48509;52.122;5.250;2022-12-11T10:53:49;101021.0;;;4.38;87.02
62458;BME280;48509;52.122;5.250;2022-12-11T10:55:27;101024.0;;;4.25;87.56
62458;BME280;48509;52.122;5.250;2022-12-11T10:58:48;101017.0;;;4.24;87.75
62458;BME280;48509;52.122;5.250;2022-12-11T11:00:29;101017.0;;;4.39;87.57
62458;BME280;48509;52.122;5.250;2022-12-11T11:02:18;101017.0;;;4.26;87.6
62458;BME280;48509;52.122;5.250;2022-12-11T11:03:58;101016.0;;;4.32;88.48
62458;BME280;48509;52.122;5.250;2022-12-11T11:07:18;101011.0;;;4.16;88.32
62458;BME280;48509;52.122;5.250;2022-12-11T11:08:57;101010.0;;;4.32;87.53
62458;BME280;48509;52.122;5.250;2022-12-11T11:10:35;101008.0;;;4.34;87.65
62458;BME280;48509;52.122;5.250;2022-12-11T11:12:21;101003.0;;;4.18;87.08
62458;BME280;48509;52.122;5.250;2022-12-11T11:15:58;101009.0;;;4.29;87.19
62458;BME280;48509;52.122;5.250;2022-12-11T11:17:41;101003.0;;;4.2;88.47
62458;BME280;48509;52.122;5.250;2022-12-11T11:19:22;101000.0;;;4.3;88.41
62458;BME280;48509;52.122;5.250;2022-12-11T11:21:00;100995.0;;;4.22;88.8
62458;BME280;48509;52.122;5.250;2022-12-11T11:22:38;100993.0;;;4.2;88.98
62458;BME280;48509;52.122;5.250;2022-12-11T11:26:06;100997.0;;;4.33;89.38
62458;BME280;48509;52.122;5.250;2022-12-11T11:27:44;100994.0;;;4.45;88.65
62458;BME280;48509;52.122;5.250;2022-12-11T11:29:28;101000.0;;;4.39;88.57